sensor_id;sensor_type;location;lat;lon;timestamp;temperature;humidity
44277;DHT22;29973;43.742;1.236;2023-04-25T00:01:22;12.80;99.90
44277;DHT22;29973;43.742;1.236;2023-04-25T00:03:48;12.80;99.90
44277;DHT22;29973;43.742;1.236;2023-04-25T00:06:14;12.80;99.90
44277;DHT22;29973;43.742;1.236;2023-04-25T00:08:40;12.80;99.90
44277;DHT22;29973;43.742;1.236;2023-04-25T00:11:06;12.90;99.90
44277;DHT22;29973;43.742;1.236;2023-04-25T00:13:32;12.90;99.90
44277;DHT22;29973;43.742;1.236;2023-04-25T00:15:58;12.80;99.90
44277;DHT22;29973;43.742;1.236;2023-04-25T00:18:24;12.80;99.90
44277;DHT22;29973;43.742;1.236;2023-04-25T00:20:50;12.80;99.90
44277;DHT22;29973;43.742;1.236;2023-04-25T00:23:16;12.80;99.90
44277;DHT22;29973;43.742;1.236;2023-04-25T00:25:48;12.80;99.90
44277;DHT22;29973;43.742;1.236;2023-04-25T00:28:14;12.80;99.90
44277;DHT22;29973;43.742;1.236;2023-04-25T00:30:41;12.80;99.90
44277;DHT22;29973;43.742;1.236;2023-04-25T00:33:06;12.70;99.90
44277;DHT22;29973;43.742;1.236;2023-04-25T00:35:33;12.70;99.90
44277;DHT22;29973;43.742;1.236;2023-04-25T00:37:58;12.70;99.90
44277;DHT22;29973;43.742;1.236;2023-04-25T00:40:24;12.70;99.90
44277;DHT22;29973;43.742;1.236;2023-04-25T00:42:52;12.70;99.90
44277;DHT22;29973;43.742;1.236;2023-04-25T00:45:18;12.80;99.90
44277;DHT22;29973;43.742;1.236;2023-04-25T00:47:44;12.80;99.90
44277;DHT22;29973;43.742;1.236;2023-04-25T00:50:11;12.70;99.90
44277;DHT22;29973;43.742;1.236;2023-04-25T00:52:43;12.70;99.90
44277;DHT22;29973;43.742;1.236;2023-04-25T00:55:10;12.70;99.90
44277;DHT22;29973;43.742;1.236;2023-04-25T00:57:36;12.70;99.90
44277;DHT22;29973;43.742;1.236;2023-04-25T01:00:03;12.60;99.90
44277;DHT22;29973;43.742;1.236;2023-04-25T01:02:32;12.70;99.90
44277;DHT22;29973;43.742;1.236;2023-04-25T01:04:58;12.60;99.90
44277;DHT22;29973;43.742;1.236;2023-04-25T01:07:24;12.60;99.90
44277;DHT22;29973;43.742;1.236;2023-04-25T01:09:51;12.60;99.90
44277;DHT22;29973;43.742;1.236;2023-04-25T01:12:17;12.50;99.90
44277;DHT22;29973;43.742;1.236;2023-04-25T01:14:43;12.60;99.90
44277;DHT22;29973;43.742;1.236;2023-04-25T01:17:09;12.60;99.90
44277;DHT22;29973;43.742;1.236;2023-04-25T01:19:35;12.60;99.90
44277;DHT22;29973;43.742;1.236;2023-04-25T01:22:01;12.60;99.90
44277;DHT22;29973;43.742;1.236;2023-04-25T01:24:27;12.50;99.90
44277;DHT22;29973;43.742;1.236;2023-04-25T01:26:54;12.60;99.90
44277;DHT22;29973;43.742;1.236;2023-04-25T01:29:22;12.60;99.90
44277;DHT22;29973;43.742;1.236;2023-04-25T01:31:48;12.60;99.90
44277;DHT22;29973;43.742;1.236;2023-04-25T01:34:14;12.60;99.90
44277;DHT22;29973;43.742;1.236;2023-04-25T01:36:40;12.70;99.90
44277;DHT22;29973;43.742;1.236;2023-04-25T01:39:06;12.70;99.90
44277;DHT22;29973;43.742;1.236;2023-04-25T01:41:32;12.70;99.90
44277;DHT22;29973;43.742;1.236;2023-04-25T01:44:00;12.70;99.90
44277;DHT22;29973;43.742;1.236;2023-04-25T01:46:27;12.70;99.90
44277;DHT22;29973;43.742;1.236;2023-04-25T01:48:52;12.80;99.90
44277;DHT22;29973;43.742;1.236;2023-04-25T01:51:18;12.80;99.90
44277;DHT22;29973;43.742;1.236;2023-04-25T01:53:45;12.80;99.90
44277;DHT22;29973;43.742;1.236;2023-04-25T01:56:11;12.90;99.90
44277;DHT22;29973;43.742;1.236;2023-04-25T01:58:36;12.90;99.90
44277;DHT22;29973;43.742;1.236;2023-04-25T02:01:02;12.90;99.90
44277;DHT22;29973;43.742;1.236;2023-04-25T02:03:28;13.00;99.90
44277;DHT22;29973;43.742;1.236;2023-04-25T02:05:54;13.00;99.90
44277;DHT22;29973;43.742;1.236;2023-04-25T02:08:20;13.10;99.90
44277;DHT22;29973;43.742;1.236;2023-04-25T02:10:46;13.10;99.90
44277;DHT22;29973;43.742;1.236;2023-04-25T02:13:11;13.20;99.90
44277;DHT22;29973;43.742;1.236;2023-04-25T02:15:37;13.20;99.90
44277;DHT22;29973;43.742;1.236;2023-04-25T02:18:03;13.20;99.90
44277;DHT22;29973;43.742;1.236;2023-04-25T02:20:29;13.20;99.90
44277;DHT22;29973;43.742;1.236;2023-04-25T02:22:56;13.30;99.90
44277;DHT22;29973;43.742;1.236;2023-04-25T02:25:21;13.30;99.90
44277;DHT22;29973;43.742;1.236;2023-04-25T02:27:48;13.30;99.90
44277;DHT22;29973;43.742;1.236;2023-04-25T02:30:14;13.20;99.90
44277;DHT22;29973;43.742;1.236;2023-04-25T02:32:40;13.20;99.90
44277;DHT22;29973;43.742;1.236;2023-04-25T02:35:06;13.20;99.90
44277;DHT22;29973;43.742;1.236;2023-04-25T02:37:37;13.20;99.90
44277;DHT22;29973;43.742;1.236;2023-04-25T02:40:03;13.10;99.90
44277;DHT22;29973;43.742;1.236;2023-04-25T02:42:30;13.10;99.90
44277;DHT22;29973;43.742;1.236;2023-04-25T02:44:55;13.20;99.90
44277;DHT22;29973;43.742;1.236;2023-04-25T02:47:21;13.10;99.90
44277;DHT22;29973;43.742;1.236;2023-04-25T02:49:47;13.20;99.90
44277;DHT22;29973;43.742;1.236;2023-04-25T02:52:13;13.10;99.90
44277;DHT22;29973;43.742;1.236;2023-04-25T02:54:40;13.10;99.90
44277;DHT22;29973;43.742;1.236;2023-04-25T02:57:06;13.10;99.90
44277;DHT22;29973;43.742;1.236;2023-04-25T02:59:32;13.10;99.90
44277;DHT22;29973;43.742;1.236;2023-04-25T03:01:58;13.10;99.90
44277;DHT22;29973;43.742;1.236;2023-04-25T03:04:23;13.10;99.90
44277;DHT22;29973;43.742;1.236;2023-04-25T03:06:53;13.20;99.90
44277;DHT22;29973;43.742;1.236;2023-04-25T03:09:19;13.20;99.90
44277;DHT22;29973;43.742;1.236;2023-04-25T03:11:45;13.20;99.90
44277;DHT22;29973;43.742;1.236;2023-04-25T03:14:11;13.20;99.90
44277;DHT22;29973;43.742;1.236;2023-04-25T03:16:37;13.20;99.90
44277;DHT22;29973;43.742;1.236;2023-04-25T03:19:03;13.20;99.90
44277;DHT22;29973;43.742;1.236;2023-04-25T03:21:30;13.10;99.90
44277;DHT22;29973;43.742;1.236;2023-04-25T03:23:58;13.20;99.90
44277;DHT22;29973;43.742;1.236;2023-04-25T03:26:23;13.20;99.90
44277;DHT22;29973;43.742;1.236;2023-04-25T03:28:49;13.20;99.90
44277;DHT22;29973;43.742;1.236;2023-04-25T03:31:15;13.20;99.90
44277;DHT22;29973;43.742;1.236;2023-04-25T03:33:41;13.20;99.90
44277;DHT22;29973;43.742;1.236;2023-04-25T03:36:06;13.30;99.90
44277;DHT22;29973;43.742;1.236;2023-04-25T03:38:32;13.30;99.90
44277;DHT22;29973;43.742;1.236;2023-04-25T03:40:58;13.30;99.90
44277;DHT22;29973;43.742;1.236;2023-04-25T03:43:24;13.30;99.90
44277;DHT22;29973;43.742;1.236;2023-04-25T03:45:50;13.30;99.90
44277;DHT22;29973;43.742;1.236;2023-04-25T03:48:15;13.30;99.90
44277;DHT22;29973;43.742;1.236;2023-04-25T03:50:41;13.40;99.90
44277;DHT22;29973;43.742;1.236;2023-04-25T03:53:07;13.40;99.90
44277;DHT22;29973;43.742;1.236;2023-04-25T03:55:33;13.30;99.90
44277;DHT22;29973;43.742;1.236;2023-04-25T03:57:58;13.40;99.90
44277;DHT22;29973;43.742;1.236;2023-04-25T04:00:24;13.40;99.90
44277;DHT22;29973;43.742;1.236;2023-04-25T04:02:50;13.40;99.90
44277;DHT22;29973;43.742;1.236;2023-04-25T04:05:16;13.40;99.90
44277;DHT22;29973;43.742;1.236;2023-04-25T04:07:42;13.40;99.90
44277;DHT22;29973;43.742;1.236;2023-04-25T04:10:09;13.40;99.90
44277;DHT22;29973;43.742;1.236;2023-04-25T04:12:35;13.40;99.90
44277;DHT22;29973;43.742;1.236;2023-04-25T04:15:02;13.40;99.90
44277;DHT22;29973;43.742;1.236;2023-04-25T04:17:29;13.50;99.90
44277;DHT22;29973;43.742;1.236;2023-04-25T04:19:55;13.40;99.90
44277;DHT22;29973;43.742;1.236;2023-04-25T04:22:21;13.50;99.90
44277;DHT22;29973;43.742;1.236;2023-04-25T04:24:47;13.50;99.90
44277;DHT22;29973;43.742;1.236;2023-04-25T04:27:13;13.40;99.90
44277;DHT22;29973;43.742;1.236;2023-04-25T04:29:39;13.40;99.90
44277;DHT22;29973;43.742;1.236;2023-04-25T04:32:05;13.50;99.90
44277;DHT22;29973;43.742;1.236;2023-04-25T04:34:30;13.50;99.90
44277;DHT22;29973;43.742;1.236;2023-04-25T04:36:56;13.50;99.90
44277;DHT22;29973;43.742;1.236;2023-04-25T04:39:22;13.50;99.90
44277;DHT22;29973;43.742;1.236;2023-04-25T04:41:48;13.50;99.90
44277;DHT22;29973;43.742;1.236;2023-04-25T04:44:14;13.50;99.90
44277;DHT22;29973;43.742;1.236;2023-04-25T04:46:40;13.60;99.90
44277;DHT22;29973;43.742;1.236;2023-04-25T04:49:11;13.50;99.90
44277;DHT22;29973;43.742;1.236;2023-04-25T04:51:38;13.60;99.90
44277;DHT22;29973;43.742;1.236;2023-04-25T04:54:04;13.60;99.90
44277;DHT22;29973;43.742;1.236;2023-04-25T04:56:30;13.60;99.90
44277;DHT22;29973;43.742;1.236;2023-04-25T04:58:59;13.60;99.90
44277;DHT22;29973;43.742;1.236;2023-04-25T05:01:26;13.60;99.90
44277;DHT22;29973;43.742;1.236;2023-04-25T05:03:52;13.60;99.90
44277;DHT22;29973;43.742;1.236;2023-04-25T05:06:21;13.60;99.90
44277;DHT22;29973;43.742;1.236;2023-04-25T05:08:46;13.70;99.90
44277;DHT22;29973;43.742;1.236;2023-04-25T05:11:12;13.60;99.90
44277;DHT22;29973;43.742;1.236;2023-04-25T05:13:38;13.60;99.90
44277;DHT22;29973;43.742;1.236;2023-04-25T05:16:03;13.60;99.90
44277;DHT22;29973;43.742;1.236;2023-04-25T05:18:29;13.60;99.90
44277;DHT22;29973;43.742;1.236;2023-04-25T05:20:55;13.70;99.90
44277;DHT22;29973;43.742;1.236;2023-04-25T05:23:21;13.70;99.90
44277;DHT22;29973;43.742;1.236;2023-04-25T05:25:47;13.70;99.90
44277;DHT22;29973;43.742;1.236;2023-04-25T05:28:12;13.70;99.90
44277;DHT22;29973;43.742;1.236;2023-04-25T05:30:38;13.80;99.90
44277;DHT22;29973;43.742;1.236;2023-04-25T05:33:04;13.80;99.90
44277;DHT22;29973;43.742;1.236;2023-04-25T05:35:30;13.70;99.90
44277;DHT22;29973;43.742;1.236;2023-04-25T05:37:56;13.80;99.90
44277;DHT22;29973;43.742;1.236;2023-04-25T05:40:21;13.80;99.90
44277;DHT22;29973;43.742;1.236;2023-04-25T05:42:47;13.80;99.90
44277;DHT22;29973;43.742;1.236;2023-04-25T05:45:13;13.80;99.90
44277;DHT22;29973;43.742;1.236;2023-04-25T05:47:39;13.70;99.90
44277;DHT22;29973;43.742;1.236;2023-04-25T05:50:05;13.80;99.90
44277;DHT22;29973;43.742;1.236;2023-04-25T05:52:31;13.90;99.90
44277;DHT22;29973;43.742;1.236;2023-04-25T05:54:57;13.70;99.90
44277;DHT22;29973;43.742;1.236;2023-04-25T05:57:26;13.70;99.90
44277;DHT22;29973;43.742;1.236;2023-04-25T05:59:53;13.70;99.90
44277;DHT22;29973;43.742;1.236;2023-04-25T06:02:20;13.70;99.90
44277;DHT22;29973;43.742;1.236;2023-04-25T06:04:47;13.70;99.90
44277;DHT22;29973;43.742;1.236;2023-04-25T06:07:13;13.70;99.90
44277;DHT22;29973;43.742;1.236;2023-04-25T06:09:39;13.70;99.90
44277;DHT22;29973;43.742;1.236;2023-04-25T06:12:06;13.70;99.90
44277;DHT22;29973;43.742;1.236;2023-04-25T06:14:32;13.70;99.90
44277;DHT22;29973;43.742;1.236;2023-04-25T06:16:57;13.70;99.90
44277;DHT22;29973;43.742;1.236;2023-04-25T06:19:23;13.70;99.90
44277;DHT22;29973;43.742;1.236;2023-04-25T06:21:49;13.90;99.90
44277;DHT22;29973;43.742;1.236;2023-04-25T06:24:14;14.00;99.90
44277;DHT22;29973;43.742;1.236;2023-04-25T06:26:40;14.00;99.90
44277;DHT22;29973;43.742;1.236;2023-04-25T06:29:06;14.00;99.90
44277;DHT22;29973;43.742;1.236;2023-04-25T06:31:31;14.00;99.90
44277;DHT22;29973;43.742;1.236;2023-04-25T06:34:00;13.70;99.90
44277;DHT22;29973;43.742;1.236;2023-04-25T06:36:26;13.50;99.90
44277;DHT22;29973;43.742;1.236;2023-04-25T06:38:53;13.20;99.90
44277;DHT22;29973;43.742;1.236;2023-04-25T06:41:19;13.00;99.90
44277;DHT22;29973;43.742;1.236;2023-04-25T06:43:45;12.80;99.90
44277;DHT22;29973;43.742;1.236;2023-04-25T06:46:11;12.70;99.90
44277;DHT22;29973;43.742;1.236;2023-04-25T06:48:37;12.60;99.90
44277;DHT22;29973;43.742;1.236;2023-04-25T06:51:03;12.50;99.90
44277;DHT22;29973;43.742;1.236;2023-04-25T06:53:29;12.20;99.90
44277;DHT22;29973;43.742;1.236;2023-04-25T06:55:55;12.40;99.90
44277;DHT22;29973;43.742;1.236;2023-04-25T06:58:20;12.30;99.90
44277;DHT22;29973;43.742;1.236;2023-04-25T07:00:46;12.40;99.90
44277;DHT22;29973;43.742;1.236;2023-04-25T07:03:12;12.40;99.90
44277;DHT22;29973;43.742;1.236;2023-04-25T07:05:37;12.40;99.90
44277;DHT22;29973;43.742;1.236;2023-04-25T07:08:03;12.50;99.90
44277;DHT22;29973;43.742;1.236;2023-04-25T07:10:29;12.40;99.90
44277;DHT22;29973;43.742;1.236;2023-04-25T07:12:55;12.30;99.90
44277;DHT22;29973;43.742;1.236;2023-04-25T07:15:20;12.40;99.90
44277;DHT22;29973;43.742;1.236;2023-04-25T07:17:46;12.60;99.90
44277;DHT22;29973;43.742;1.236;2023-04-25T07:20:12;12.70;99.90
44277;DHT22;29973;43.742;1.236;2023-04-25T07:22:38;12.60;99.90
44277;DHT22;29973;43.742;1.236;2023-04-25T07:25:04;12.50;99.90
44277;DHT22;29973;43.742;1.236;2023-04-25T07:27:30;12.40;99.90
44277;DHT22;29973;43.742;1.236;2023-04-25T07:29:56;12.40;99.90
44277;DHT22;29973;43.742;1.236;2023-04-25T07:32:22;12.30;99.90
44277;DHT22;29973;43.742;1.236;2023-04-25T07:34:48;12.20;99.90
44277;DHT22;29973;43.742;1.236;2023-04-25T07:37:14;12.30;99.90
44277;DHT22;29973;43.742;1.236;2023-04-25T07:39:40;12.20;99.90
44277;DHT22;29973;43.742;1.236;2023-04-25T07:42:06;12.30;99.90
44277;DHT22;29973;43.742;1.236;2023-04-25T07:44:34;12.20;99.90
44277;DHT22;29973;43.742;1.236;2023-04-25T07:47:07;12.30;99.90
44277;DHT22;29973;43.742;1.236;2023-04-25T07:49:34;12.40;99.90
44277;DHT22;29973;43.742;1.236;2023-04-25T07:52:01;12.50;99.90
44277;DHT22;29973;43.742;1.236;2023-04-25T07:54:27;12.60;99.90
44277;DHT22;29973;43.742;1.236;2023-04-25T07:56:53;12.60;99.90
44277;DHT22;29973;43.742;1.236;2023-04-25T07:59:19;12.50;99.90
44277;DHT22;29973;43.742;1.236;2023-04-25T08:01:45;12.60;99.90
44277;DHT22;29973;43.742;1.236;2023-04-25T08:04:10;12.70;99.90
44277;DHT22;29973;43.742;1.236;2023-04-25T08:06:36;12.70;99.90
44277;DHT22;29973;43.742;1.236;2023-04-25T08:09:02;12.90;99.90
44277;DHT22;29973;43.742;1.236;2023-04-25T08:11:28;13.00;99.90
44277;DHT22;29973;43.742;1.236;2023-04-25T08:13:54;13.10;99.90
44277;DHT22;29973;43.742;1.236;2023-04-25T08:16:20;13.30;99.90
44277;DHT22;29973;43.742;1.236;2023-04-25T08:18:45;13.20;99.90
44277;DHT22;29973;43.742;1.236;2023-04-25T08:21:11;13.50;99.90
44277;DHT22;29973;43.742;1.236;2023-04-25T08:23:38;13.40;99.90
44277;DHT22;29973;43.742;1.236;2023-04-25T08:26:04;13.60;99.90
44277;DHT22;29973;43.742;1.236;2023-04-25T08:28:30;13.60;99.90
44277;DHT22;29973;43.742;1.236;2023-04-25T08:30:56;13.50;99.90
44277;DHT22;29973;43.742;1.236;2023-04-25T08:33:22;13.20;99.90
44277;DHT22;29973;43.742;1.236;2023-04-25T08:35:48;13.10;99.90
44277;DHT22;29973;43.742;1.236;2023-04-25T08:38:13;13.30;99.90
44277;DHT22;29973;43.742;1.236;2023-04-25T08:40:40;13.50;99.90
44277;DHT22;29973;43.742;1.236;2023-04-25T08:43:07;13.40;99.90
44277;DHT22;29973;43.742;1.236;2023-04-25T08:45:41;13.30;99.90
44277;DHT22;29973;43.742;1.236;2023-04-25T08:48:17;13.20;99.90
44277;DHT22;29973;43.742;1.236;2023-04-25T08:50:51;13.20;99.90
44277;DHT22;29973;43.742;1.236;2023-04-25T08:53:25;13.40;99.90
44277;DHT22;29973;43.742;1.236;2023-04-25T08:55:53;13.40;99.90
44277;DHT22;29973;43.742;1.236;2023-04-25T08:58:19;13.20;99.90
44277;DHT22;29973;43.742;1.236;2023-04-25T09:00:48;13.20;99.90
44277;DHT22;29973;43.742;1.236;2023-04-25T09:03:15;13.20;99.90
44277;DHT22;29973;43.742;1.236;2023-04-25T09:05:41;13.10;99.90
44277;DHT22;29973;43.742;1.236;2023-04-25T09:08:07;13.60;99.90
44277;DHT22;29973;43.742;1.236;2023-04-25T09:10:34;13.70;99.90
44277;DHT22;29973;43.742;1.236;2023-04-25T09:13:14;13.50;99.90
44277;DHT22;29973;43.742;1.236;2023-04-25T09:15:53;13.60;99.90
44277;DHT22;29973;43.742;1.236;2023-04-25T09:18:32;13.40;99.90
44277;DHT22;29973;43.742;1.236;2023-04-25T09:21:09;13.40;99.90
44277;DHT22;29973;43.742;1.236;2023-04-25T09:23:45;13.60;99.90
44277;DHT22;29973;43.742;1.236;2023-04-25T09:26:17;13.60;99.90
44277;DHT22;29973;43.742;1.236;2023-04-25T09:28:43;13.70;99.90
44277;DHT22;29973;43.742;1.236;2023-04-25T09:31:12;13.50;99.90
44277;DHT22;29973;43.742;1.236;2023-04-25T09:33:38;13.50;99.90
44277;DHT22;29973;43.742;1.236;2023-04-25T09:36:08;13.30;99.90
44277;DHT22;29973;43.742;1.236;2023-04-25T09:38:43;13.40;99.90
44277;DHT22;29973;43.742;1.236;2023-04-25T09:41:10;13.50;99.90
44277;DHT22;29973;43.742;1.236;2023-04-25T09:43:37;13.50;99.90
44277;DHT22;29973;43.742;1.236;2023-04-25T09:46:07;13.50;99.90
44277;DHT22;29973;43.742;1.236;2023-04-25T09:48:33;13.50;99.90
44277;DHT22;29973;43.742;1.236;2023-04-25T09:51:11;13.50;99.90
44277;DHT22;29973;43.742;1.236;2023-04-25T09:53:41;13.40;99.90
44277;DHT22;29973;43.742;1.236;2023-04-25T09:56:09;13.40;99.90
44277;DHT22;29973;43.742;1.236;2023-04-25T09:58:37;13.50;99.90
44277;DHT22;29973;43.742;1.236;2023-04-25T10:01:05;13.60;99.90
44277;DHT22;29973;43.742;1.236;2023-04-25T10:03:32;13.90;99.90
44277;DHT22;29973;43.742;1.236;2023-04-25T10:06:07;14.50;99.90
44277;DHT22;29973;43.742;1.236;2023-04-25T10:08:35;15.40;99.90
44277;DHT22;29973;43.742;1.236;2023-04-25T10:11:06;16.00;99.90
44277;DHT22;29973;43.742;1.236;2023-04-25T10:13:33;15.50;99.90
44277;DHT22;29973;43.742;1.236;2023-04-25T10:16:02;14.90;99.90
44277;DHT22;29973;43.742;1.236;2023-04-25T10:18:30;14.50;99.90
44277;DHT22;29973;43.742;1.236;2023-04-25T10:21:01;14.20;99.90
44277;DHT22;29973;43.742;1.236;2023-04-25T10:23:27;14.50;99.90
44277;DHT22;29973;43.742;1.236;2023-04-25T10:25:55;14.70;99.90
44277;DHT22;29973;43.742;1.236;2023-04-25T10:28:21;15.00;99.90
44277;DHT22;29973;43.742;1.236;2023-04-25T10:30:57;14.80;99.90
44277;DHT22;29973;43.742;1.236;2023-04-25T10:33:34;14.80;99.90
44277;DHT22;29973;43.742;1.236;2023-04-25T10:38:42;15.10;99.90
44277;DHT22;29973;43.742;1.236;2023-04-25T10:41:09;15.30;99.90
44277;DHT22;29973;43.742;1.236;2023-04-25T10:43:43;15.50;99.90
44277;DHT22;29973;43.742;1.236;2023-04-25T10:46:25;14.90;99.90
44277;DHT22;29973;43.742;1.236;2023-04-25T10:48:53;14.70;99.90
44277;DHT22;29973;43.742;1.236;2023-04-25T10:56:31;15.30;99.90
44277;DHT22;29973;43.742;1.236;2023-04-25T10:59:07;15.60;99.90
44277;DHT22;29973;43.742;1.236;2023-04-25T11:01:55;15.70;99.90
44277;DHT22;29973;43.742;1.236;2023-04-25T11:04:31;15.90;99.90
44277;DHT22;29973;43.742;1.236;2023-04-25T11:09:49;16.20;99.90
44277;DHT22;29973;43.742;1.236;2023-04-25T11:12:15;16.30;99.90
44277;DHT22;29973;43.742;1.236;2023-04-25T11:14:42;16.20;99.90
44277;DHT22;29973;43.742;1.236;2023-04-25T11:17:08;16.10;99.90
44277;DHT22;29973;43.742;1.236;2023-04-25T11:19:34;16.20;99.90
44277;DHT22;29973;43.742;1.236;2023-04-25T11:22:01;16.20;99.90
44277;DHT22;29973;43.742;1.236;2023-04-25T11:24:28;16.40;99.90
44277;DHT22;29973;43.742;1.236;2023-04-25T11:26:54;15.90;99.90
44277;DHT22;29973;43.742;1.236;2023-04-25T11:29:26;16.00;99.90
44277;DHT22;29973;43.742;1.236;2023-04-25T11:31:52;16.10;99.90
44277;DHT22;29973;43.742;1.236;2023-04-25T11:34:18;15.80;99.90
44277;DHT22;29973;43.742;1.236;2023-04-25T11:36:45;15.70;99.90
44277;DHT22;29973;43.742;1.236;2023-04-25T11:39:11;15.30;99.90
44277;DHT22;29973;43.742;1.236;2023-04-25T11:41:38;15.20;99.90
44277;DHT22;29973;43.742;1.236;2023-04-25T11:44:04;15.30;99.90
44277;DHT22;29973;43.742;1.236;2023-04-25T11:46:33;15.50;99.90
44277;DHT22;29973;43.742;1.236;2023-04-25T11:49:00;16.10;99.90
44277;DHT22;29973;43.742;1.236;2023-04-25T11:51:25;16.40;99.90
44277;DHT22;29973;43.742;1.236;2023-04-25T11:53:52;16.30;99.90
44277;DHT22;29973;43.742;1.236;2023-04-25T11:56:18;15.90;99.90
44277;DHT22;29973;43.742;1.236;2023-04-25T11:59:04;15.60;99.90
44277;DHT22;29973;43.742;1.236;2023-04-25T12:01:35;15.90;99.90
44277;DHT22;29973;43.742;1.236;2023-04-25T12:06:40;16.60;99.90
44277;DHT22;29973;43.742;1.236;2023-04-25T12:09:11;17.00;99.90
44277;DHT22;29973;43.742;1.236;2023-04-25T12:14:21;16.60;99.90
44277;DHT22;29973;43.742;1.236;2023-04-25T12:16:48;16.40;99.90
44277;DHT22;29973;43.742;1.236;2023-04-25T12:19:20;16.10;99.90
44277;DHT22;29973;43.742;1.236;2023-04-25T12:21:47;16.20;99.90
44277;DHT22;29973;43.742;1.236;2023-04-25T12:24:24;16.60;99.90
44277;DHT22;29973;43.742;1.236;2023-04-25T12:27:04;16.70;99.90
44277;DHT22;29973;43.742;1.236;2023-04-25T12:29:34;16.70;99.90
44277;DHT22;29973;43.742;1.236;2023-04-25T12:32:00;16.20;99.90
44277;DHT22;29973;43.742;1.236;2023-04-25T12:34:27;16.00;99.90
44277;DHT22;29973;43.742;1.236;2023-04-25T12:36:54;16.10;99.90
44277;DHT22;29973;43.742;1.236;2023-04-25T12:39:24;16.10;99.90
44277;DHT22;29973;43.742;1.236;2023-04-25T12:41:51;16.20;99.90
44277;DHT22;29973;43.742;1.236;2023-04-25T12:44:21;16.00;99.90
44277;DHT22;29973;43.742;1.236;2023-04-25T12:46:47;16.10;99.90
44277;DHT22;29973;43.742;1.236;2023-04-25T12:49:13;16.00;99.90
44277;DHT22;29973;43.742;1.236;2023-04-25T12:51:39;15.80;99.90
44277;DHT22;29973;43.742;1.236;2023-04-25T12:54:05;15.70;99.90
44277;DHT22;29973;43.742;1.236;2023-04-25T12:56:32;15.50;99.90
44277;DHT22;29973;43.742;1.236;2023-04-25T12:58:59;15.80;99.90
44277;DHT22;29973;43.742;1.236;2023-04-25T13:01:25;16.10;99.90
44277;DHT22;29973;43.742;1.236;2023-04-25T13:03:52;16.30;99.90
44277;DHT22;29973;43.742;1.236;2023-04-25T13:06:19;16.20;99.90
44277;DHT22;29973;43.742;1.236;2023-04-25T13:08:45;16.30;99.90
44277;DHT22;29973;43.742;1.236;2023-04-25T13:11:11;16.10;99.90
44277;DHT22;29973;43.742;1.236;2023-04-25T13:13:37;16.40;99.90
44277;DHT22;29973;43.742;1.236;2023-04-25T13:16:04;16.30;99.90
44277;DHT22;29973;43.742;1.236;2023-04-25T13:18:30;16.50;99.90
44277;DHT22;29973;43.742;1.236;2023-04-25T13:20:57;16.70;99.90
44277;DHT22;29973;43.742;1.236;2023-04-25T13:23:24;16.50;99.90
44277;DHT22;29973;43.742;1.236;2023-04-25T13:25:50;16.90;99.90
44277;DHT22;29973;43.742;1.236;2023-04-25T13:28:16;17.10;99.90
44277;DHT22;29973;43.742;1.236;2023-04-25T13:30:42;17.50;99.90
44277;DHT22;29973;43.742;1.236;2023-04-25T13:33:08;18.30;99.90
44277;DHT22;29973;43.742;1.236;2023-04-25T13:35:35;17.70;99.90
44277;DHT22;29973;43.742;1.236;2023-04-25T13:38:02;17.70;99.90
44277;DHT22;29973;43.742;1.236;2023-04-25T13:40:28;18.10;99.90
44277;DHT22;29973;43.742;1.236;2023-04-25T13:42:55;18.30;99.90
44277;DHT22;29973;43.742;1.236;2023-04-25T13:45:21;18.60;99.90
44277;DHT22;29973;43.742;1.236;2023-04-25T13:47:47;19.00;99.90
44277;DHT22;29973;43.742;1.236;2023-04-25T13:50:13;18.70;99.90
44277;DHT22;29973;43.742;1.236;2023-04-25T13:52:39;18.50;99.90
44277;DHT22;29973;43.742;1.236;2023-04-25T13:55:06;17.20;99.90
44277;DHT22;29973;43.742;1.236;2023-04-25T13:57:33;16.80;99.90
44277;DHT22;29973;43.742;1.236;2023-04-25T13:59:59;16.00;99.90
44277;DHT22;29973;43.742;1.236;2023-04-25T14:02:30;15.90;99.90
44277;DHT22;29973;43.742;1.236;2023-04-25T14:04:55;15.90;99.90
44277;DHT22;29973;43.742;1.236;2023-04-25T14:07:21;15.90;99.90
44277;DHT22;29973;43.742;1.236;2023-04-25T14:09:47;16.40;99.90
44277;DHT22;29973;43.742;1.236;2023-04-25T14:12:13;16.30;99.90
44277;DHT22;29973;43.742;1.236;2023-04-25T14:14:38;17.30;99.90
44277;DHT22;29973;43.742;1.236;2023-04-25T14:17:04;17.90;99.90
44277;DHT22;29973;43.742;1.236;2023-04-25T14:19:30;18.80;99.90
44277;DHT22;29973;43.742;1.236;2023-04-25T14:21:56;18.20;99.90
44277;DHT22;29973;43.742;1.236;2023-04-25T14:24:22;17.90;99.90
44277;DHT22;29973;43.742;1.236;2023-04-25T14:26:47;17.60;99.90
44277;DHT22;29973;43.742;1.236;2023-04-25T14:29:13;16.50;99.90
44277;DHT22;29973;43.742;1.236;2023-04-25T14:31:39;16.70;99.90
44277;DHT22;29973;43.742;1.236;2023-04-25T14:34:06;17.20;99.90
44277;DHT22;29973;43.742;1.236;2023-04-25T14:36:32;17.10;99.90
44277;DHT22;29973;43.742;1.236;2023-04-25T14:38:59;16.90;99.90
44277;DHT22;29973;43.742;1.236;2023-04-25T14:41:25;16.30;99.90
44277;DHT22;29973;43.742;1.236;2023-04-25T14:43:52;15.90;99.90
44277;DHT22;29973;43.742;1.236;2023-04-25T14:46:22;15.90;99.90
44277;DHT22;29973;43.742;1.236;2023-04-25T14:48:49;15.80;99.90
44277;DHT22;29973;43.742;1.236;2023-04-25T14:51:14;15.50;99.90
44277;DHT22;29973;43.742;1.236;2023-04-25T14:53:41;15.10;99.90
44277;DHT22;29973;43.742;1.236;2023-04-25T14:56:07;15.30;99.90
44277;DHT22;29973;43.742;1.236;2023-04-25T14:58:33;15.40;99.90
44277;DHT22;29973;43.742;1.236;2023-04-25T15:00:59;15.10;99.90
44277;DHT22;29973;43.742;1.236;2023-04-25T15:03:25;14.80;99.90
44277;DHT22;29973;43.742;1.236;2023-04-25T15:05:51;14.90;99.90
44277;DHT22;29973;43.742;1.236;2023-04-25T15:08:17;14.00;99.90
44277;DHT22;29973;43.742;1.236;2023-04-25T15:10:43;14.50;99.90
44277;DHT22;29973;43.742;1.236;2023-04-25T15:13:09;14.70;99.90
44277;DHT22;29973;43.742;1.236;2023-04-25T15:15:35;14.60;99.90
44277;DHT22;29973;43.742;1.236;2023-04-25T15:18:02;14.70;99.90
44277;DHT22;29973;43.742;1.236;2023-04-25T15:20:27;14.90;99.90
44277;DHT22;29973;43.742;1.236;2023-04-25T15:22:53;14.70;99.90
44277;DHT22;29973;43.742;1.236;2023-04-25T15:25:19;14.90;99.90
44277;DHT22;29973;43.742;1.236;2023-04-25T15:27:45;14.50;99.90
44277;DHT22;29973;43.742;1.236;2023-04-25T15:30:14;14.30;99.90
44277;DHT22;29973;43.742;1.236;2023-04-25T15:32:42;14.30;99.90
44277;DHT22;29973;43.742;1.236;2023-04-25T15:35:08;14.20;99.90
44277;DHT22;29973;43.742;1.236;2023-04-25T15:37:35;14.60;99.90
44277;DHT22;29973;43.742;1.236;2023-04-25T15:42:45;15.10;99.90
44277;DHT22;29973;43.742;1.236;2023-04-25T15:45:16;14.80;99.90
44277;DHT22;29973;43.742;1.236;2023-04-25T15:47:42;14.60;99.90